Accueil
METAR-TAF:

METAR-TAF

Aéroports :

Asheboro Regional Airport

Asheboro, Caroline du Nord, États-Unis

latitude: 35-39-14N, longitude: 079-53-42W, altitude: 205 m

Observation

Le bulletin a été fait il y a 21 minutes, à 00:15 UTC
Vent 6 kt de sud
Température 14°C
Humidité 51%
Pression 1017 hPa
Visibilité: 16.1 km
Ciel clair

METAR: KHBI 120015Z AUTO 18006KT 10SM CLR 14/04 A3002 RMK AO2 T01420036

Heure: 19:36 (00:36 UTC)


TAF: absent

Observations et prévisions météorologiques de plus de 4000 aéroports (messages METAR et TAF).

Les stations disponibles sont représentées par des disques jaunes et rouges sur la carte.

Passer la souris dessus pour voir le nom de la station.

Cliquer dessus pour voir les observations et prévisions météorologiques.

Pour changer de carte: cliquez sur les boutons verts avec une croix noire pour zoomer, sur le bouton vert avec un tiret pour effectuer un zoom arrière, ou sur les flèches vertes pour les cartes adjacentes.


METAR-TAF: